Lebanon, New Hampshire
Current Conditions -  °F | °C
As of 10:53 PM on Friday 24 Oct 2014 (Local Time) from KLEB Reporting Station
Overcast Overcast  
Wind Chill: 44°   Ceiling: 9000
Heat Index: 47°   Visibility: 10mi
Dew Point: 39°   Wind: 6mph
Humidity: 74%   Direction: 20°NNE
Pressure: 29.79"   Gusts: NA
Location:  43.64°N, 72.25°W
Report Text: KLEB 250253Z AUTO 02005KT 10SM OVC090 08/04 A2979 RMK AO2 SLP089 T00830039 52001
Loading
Personal Weather Stations






























Interactive Weather Map New forecast layout! Learn more

10-Day Weather Forecast

Advertisements
Track Severe Weather on mobile